sensor_id;sensor_type;location;lat;lon;timestamp;P1;durP1;ratioP1;P2;durP2;ratioP2
15500;SDS011;7852;52.228;5.990;2023-05-10T00:03:18;7.8;;;6.4;;
15500;SDS011;7852;52.228;5.990;2023-05-10T00:03:18;8.5;;;6.1;;
15500;SDS011;7852;52.228;5.990;2023-05-10T00:03:52;9.4;;;5.5;;
15500;SDS011;7852;52.228;5.990;2023-05-10T00:04:52;10.1;;;5.8;;
15500;SDS011;7852;52.228;5.990;2023-05-10T00:05:52;9.6;;;6.6;;
15500;SDS011;7852;52.228;5.990;2023-05-10T00:06:52;9.4;;;6.3;;
15500;SDS011;7852;52.228;5.990;2023-05-10T00:07:52;10.1;;;6.3;;
15500;SDS011;7852;52.228;5.990;2023-05-10T00:08:53;8.5;;;6;;
15500;SDS011;7852;52.228;5.990;2023-05-10T00:09:52;16;;;6.5;;
15500;SDS011;7852;52.228;5.990;2023-05-10T00:10:52;10.5;;;6.2;;
15500;SDS011;7852;52.228;5.990;2023-05-10T00:11:52;8.5;;;6.2;;
15500;SDS011;7852;52.228;5.990;2023-05-10T00:12:52;12.2;;;6.8;;
15500;SDS011;7852;52.228;5.990;2023-05-10T00:13:52;11.2;;;6.6;;
15500;SDS011;7852;52.228;5.990;2023-05-10T00:14:52;11.2;;;6.5;;
15500;SDS011;7852;52.228;5.990;2023-05-10T00:15:52;8.7;;;6.1;;
15500;SDS011;7852;52.228;5.990;2023-05-10T00:16:52;10.5;;;6.5;;
15500;SDS011;7852;52.228;5.990;2023-05-10T00:17:52;9.7;;;6.6;;
15500;SDS011;7852;52.228;5.990;2023-05-10T00:18:52;11.1;;;6.4;;
15500;SDS011;7852;52.228;5.990;2023-05-10T00:19:52;12.7;;;6.8;;
15500;SDS011;7852;52.228;5.990;2023-05-10T00:20:52;13.6;;;7.1;;
15500;SDS011;7852;52.228;5.990;2023-05-10T00:21:52;9.5;;;5.8;;
15500;SDS011;7852;52.228;5.990;2023-05-10T00:22:52;9.3;;;6.1;;
15500;SDS011;7852;52.228;5.990;2023-05-10T00:23:52;11.7;;;7;;
15500;SDS011;7852;52.228;5.990;2023-05-10T00:24:52;11.6;;;7.2;;
15500;SDS011;7852;52.228;5.990;2023-05-10T00:25:52;9.2;;;6.7;;
15500;SDS011;7852;52.228;5.990;2023-05-10T00:26:52;10.1;;;6;;
15500;SDS011;7852;52.228;5.990;2023-05-10T00:27:52;9.8;;;6.7;;
15500;SDS011;7852;52.228;5.990;2023-05-10T00:28:52;12.2;;;6.7;;
15500;SDS011;7852;52.228;5.990;2023-05-10T00:29:52;10.4;;;6.5;;
15500;SDS011;7852;52.228;5.990;2023-05-10T00:30:52;11.5;;;7.9;;
15500;SDS011;7852;52.228;5.990;2023-05-10T00:31:52;9.6;;;6.6;;
15500;SDS011;7852;52.228;5.990;2023-05-10T00:32:52;9.7;;;6.5;;
15500;SDS011;7852;52.228;5.990;2023-05-10T00:33:52;9.4;;;6.4;;
15500;SDS011;7852;52.228;5.990;2023-05-10T00:34:52;10.5;;;6.7;;
15500;SDS011;7852;52.228;5.990;2023-05-10T00:35:52;14;;;7.3;;
15500;SDS011;7852;52.228;5.990;2023-05-10T00:36:52;14.1;;;8.2;;
15500;SDS011;7852;52.228;5.990;2023-05-10T00:37:52;11.2;;;7.7;;
15500;SDS011;7852;52.228;5.990;2023-05-10T00:38:52;11.3;;;7.2;;
15500;SDS011;7852;52.228;5.990;2023-05-10T00:39:52;9.1;;;6.2;;
15500;SDS011;7852;52.228;5.990;2023-05-10T00:40:52;11.4;;;7.6;;
15500;SDS011;7852;52.228;5.990;2023-05-10T00:41:52;12.2;;;7.5;;
15500;SDS011;7852;52.228;5.990;2023-05-10T00:42:52;11.5;;;7.2;;
15500;SDS011;7852;52.228;5.990;2023-05-10T00:43:52;10.2;;;6.9;;
15500;SDS011;7852;52.228;5.990;2023-05-10T00:44:52;12.2;;;7.1;;
15500;SDS011;7852;52.228;5.990;2023-05-10T00:45:52;12.7;;;7.4;;
15500;SDS011;7852;52.228;5.990;2023-05-10T00:46:53;11.2;;;7.3;;
15500;SDS011;7852;52.228;5.990;2023-05-10T00:47:52;13.2;;;8.1;;
15500;SDS011;7852;52.228;5.990;2023-05-10T00:48:52;12.3;;;7.6;;
15500;SDS011;7852;52.228;5.990;2023-05-10T00:49:53;14;;;7.7;;
15500;SDS011;7852;52.228;5.990;2023-05-10T00:50:52;12.8;;;7.5;;
15500;SDS011;7852;52.228;5.990;2023-05-10T00:51:52;15.2;;;8;;
15500;SDS011;7852;52.228;5.990;2023-05-10T00:52:52;15.8;;;8.3;;
15500;SDS011;7852;52.228;5.990;2023-05-10T00:53:52;13.5;;;7.8;;
15500;SDS011;7852;52.228;5.990;2023-05-10T00:54:52;13.7;;;8.1;;
15500;SDS011;7852;52.228;5.990;2023-05-10T00:55:52;13.6;;;8.3;;
15500;SDS011;7852;52.228;5.990;2023-05-10T00:56:52;12.8;;;7.8;;
15500;SDS011;7852;52.228;5.990;2023-05-10T00:57:52;15.5;;;7.4;;
15500;SDS011;7852;52.228;5.990;2023-05-10T00:58:52;12.2;;;7.6;;
15500;SDS011;7852;52.228;5.990;2023-05-10T00:59:52;12.8;;;8.3;;
15500;SDS011;7852;52.228;5.990;2023-05-10T01:00:52;16.5;;;9;;
15500;SDS011;7852;52.228;5.990;2023-05-10T01:01:53;13.7;;;8.6;;
15500;SDS011;7852;52.228;5.990;2023-05-10T01:02:52;16.1;;;8.5;;
15500;SDS011;7852;52.228;5.990;2023-05-10T01:03:52;15.8;;;9.5;;
15500;SDS011;7852;52.228;5.990;2023-05-10T01:04:54;14;;;8.8;;
15500;SDS011;7852;52.228;5.990;2023-05-10T01:05:52;14.6;;;8.3;;
15500;SDS011;7852;52.228;5.990;2023-05-10T01:06:52;17.3;;;9.2;;
15500;SDS011;7852;52.228;5.990;2023-05-10T01:07:53;16;;;9;;
15500;SDS011;7852;52.228;5.990;2023-05-10T01:08:52;17.2;;;8.6;;
15500;SDS011;7852;52.228;5.990;2023-05-10T01:09:52;13.7;;;8.9;;
15500;SDS011;7852;52.228;5.990;2023-05-10T01:10:52;14.8;;;8.8;;
15500;SDS011;7852;52.228;5.990;2023-05-10T01:11:53;17;;;9.9;;
15500;SDS011;7852;52.228;5.990;2023-05-10T01:12:52;17.2;;;10.1;;
15500;SDS011;7852;52.228;5.990;2023-05-10T01:13:53;17.7;;;10;;
15500;SDS011;7852;52.228;5.990;2023-05-10T01:14:52;15.1;;;9.6;;
15500;SDS011;7852;52.228;5.990;2023-05-10T01:15:52;20.7;;;10.3;;
15500;SDS011;7852;52.228;5.990;2023-05-10T01:16:52;18.4;;;10.4;;
15500;SDS011;7852;52.228;5.990;2023-05-10T01:17:52;16.5;;;9.5;;
15500;SDS011;7852;52.228;5.990;2023-05-10T01:18:52;14.3;;;9.1;;
15500;SDS011;7852;52.228;5.990;2023-05-10T01:19:52;16.3;;;9.8;;
15500;SDS011;7852;52.228;5.990;2023-05-10T01:20:55;19.4;;;10.9;;
15500;SDS011;7852;52.228;5.990;2023-05-10T01:21:54;22.8;;;11.1;;
15500;SDS011;7852;52.228;5.990;2023-05-10T01:23:11;17;;;11;;
15500;SDS011;7852;52.228;5.990;2023-05-10T01:24:01;21.5;;;11;;
15500;SDS011;7852;52.228;5.990;2023-05-10T01:25:11;20.9;;;11.2;;
15500;SDS011;7852;52.228;5.990;2023-05-10T01:26:14;18.1;;;10.7;;
15500;SDS011;7852;52.228;5.990;2023-05-10T01:26:58;18.1;;;11.5;;
15500;SDS011;7852;52.228;5.990;2023-05-10T01:27:57;19.7;;;10.8;;
15500;SDS011;7852;52.228;5.990;2023-05-10T01:28:58;20.4;;;10.2;;
15500;SDS011;7852;52.228;5.990;2023-05-10T01:30:01;21.3;;;11.5;;
15500;SDS011;7852;52.228;5.990;2023-05-10T01:31:03;19.8;;;10.6;;
15500;SDS011;7852;52.228;5.990;2023-05-10T01:31:58;18.1;;;11;;
15500;SDS011;7852;52.228;5.990;2023-05-10T01:32:53;20.6;;;11.7;;
15500;SDS011;7852;52.228;5.990;2023-05-10T01:33:53;21.8;;;11.2;;
15500;SDS011;7852;52.228;5.990;2023-05-10T01:34:54;18.1;;;11.2;;
15500;SDS011;7852;52.228;5.990;2023-05-10T01:35:54;20.9;;;12.2;;
15500;SDS011;7852;52.228;5.990;2023-05-10T01:36:54;22;;;12.3;;
15500;SDS011;7852;52.228;5.990;2023-05-10T01:37:56;27.3;;;12;;
15500;SDS011;7852;52.228;5.990;2023-05-10T01:38:53;20.5;;;11.2;;
15500;SDS011;7852;52.228;5.990;2023-05-10T01:39:54;21;;;12.3;;
15500;SDS011;7852;52.228;5.990;2023-05-10T01:40:54;21.1;;;11.2;;
15500;SDS011;7852;52.228;5.990;2023-05-10T01:41:54;26.8;;;12.6;;
15500;SDS011;7852;52.228;5.990;2023-05-10T01:42:53;22.4;;;12.2;;
15500;SDS011;7852;52.228;5.990;2023-05-10T01:43:54;21.3;;;12.3;;
15500;SDS011;7852;52.228;5.990;2023-05-10T01:44:54;28.3;;;12.4;;
15500;SDS011;7852;52.228;5.990;2023-05-10T01:45:55;28;;;13.2;;
15500;SDS011;7852;52.228;5.990;2023-05-10T01:46:53;23.2;;;12.9;;
15500;SDS011;7852;52.228;5.990;2023-05-10T01:47:54;21.5;;;13;;
15500;SDS011;7852;52.228;5.990;2023-05-10T01:48:53;21.6;;;12.5;;
15500;SDS011;7852;52.228;5.990;2023-05-10T01:49:53;29.8;;;14.3;;
15500;SDS011;7852;52.228;5.990;2023-05-10T01:50:52;24.1;;;13.2;;
15500;SDS011;7852;52.228;5.990;2023-05-10T01:51:53;27.7;;;13.2;;
15500;SDS011;7852;52.228;5.990;2023-05-10T01:52:53;25.1;;;13.9;;
15500;SDS011;7852;52.228;5.990;2023-05-10T01:53:54;21.2;;;13;;
15500;SDS011;7852;52.228;5.990;2023-05-10T01:54:53;31.6;;;13.6;;
15500;SDS011;7852;52.228;5.990;2023-05-10T01:55:52;26.3;;;13.6;;
15500;SDS011;7852;52.228;5.990;2023-05-10T01:56:52;29.5;;;13.6;;
15500;SDS011;7852;52.228;5.990;2023-05-10T01:57:55;26.5;;;13.8;;
15500;SDS011;7852;52.228;5.990;2023-05-10T01:58:52;22.9;;;13.5;;
15500;SDS011;7852;52.228;5.990;2023-05-10T01:59:52;28.7;;;14.1;;
15500;SDS011;7852;52.228;5.990;2023-05-10T02:00:52;28;;;14.9;;
15500;SDS011;7852;52.228;5.990;2023-05-10T02:01:52;35;;;14.7;;
15500;SDS011;7852;52.228;5.990;2023-05-10T02:02:52;36.8;;;15.3;;
15500;SDS011;7852;52.228;5.990;2023-05-10T02:03:54;27.2;;;14.5;;
15500;SDS011;7852;52.228;5.990;2023-05-10T02:04:52;32.3;;;14;;
15500;SDS011;7852;52.228;5.990;2023-05-10T02:05:52;28.3;;;14.4;;
15500;SDS011;7852;52.228;5.990;2023-05-10T02:06:53;28.1;;;14.9;;
15500;SDS011;7852;52.228;5.990;2023-05-10T02:07:52;28.9;;;14.7;;
15500;SDS011;7852;52.228;5.990;2023-05-10T02:08:52;28;;;15.7;;
15500;SDS011;7852;52.228;5.990;2023-05-10T02:09:52;30.7;;;15.2;;
15500;SDS011;7852;52.228;5.990;2023-05-10T02:10:53;29.3;;;15.5;;
15500;SDS011;7852;52.228;5.990;2023-05-10T02:11:52;38.4;;;16.5;;
15500;SDS011;7852;52.228;5.990;2023-05-10T02:12:52;33.5;;;16;;
15500;SDS011;7852;52.228;5.990;2023-05-10T02:13:52;33.5;;;16.2;;
15500;SDS011;7852;52.228;5.990;2023-05-10T02:14:52;32;;;14.9;;
15500;SDS011;7852;52.228;5.990;2023-05-10T02:15:52;31.2;;;15.8;;
15500;SDS011;7852;52.228;5.990;2023-05-10T02:16:52;29.5;;;15.3;;
15500;SDS011;7852;52.228;5.990;2023-05-10T02:17:52;31.1;;;15.2;;
15500;SDS011;7852;52.228;5.990;2023-05-10T02:18:52;32.6;;;16.9;;
15500;SDS011;7852;52.228;5.990;2023-05-10T02:19:52;27.2;;;14.9;;
15500;SDS011;7852;52.228;5.990;2023-05-10T02:20:52;32.4;;;17.3;;
15500;SDS011;7852;52.228;5.990;2023-05-10T02:21:52;31.5;;;15.7;;
15500;SDS011;7852;52.228;5.990;2023-05-10T02:22:53;29.6;;;15.5;;
15500;SDS011;7852;52.228;5.990;2023-05-10T02:23:52;33;;;16.8;;
15500;SDS011;7852;52.228;5.990;2023-05-10T02:24:52;34.6;;;16.5;;
15500;SDS011;7852;52.228;5.990;2023-05-10T02:25:52;29.9;;;15.5;;
15500;SDS011;7852;52.228;5.990;2023-05-10T02:26:53;37.3;;;18;;
15500;SDS011;7852;52.228;5.990;2023-05-10T02:27:53;34.9;;;18;;
15500;SDS011;7852;52.228;5.990;2023-05-10T02:28:52;35.7;;;17.7;;
15500;SDS011;7852;52.228;5.990;2023-05-10T02:29:52;37.4;;;16.8;;
15500;SDS011;7852;52.228;5.990;2023-05-10T02:30:52;37.9;;;18.4;;
15500;SDS011;7852;52.228;5.990;2023-05-10T02:31:52;37;;;18.1;;
15500;SDS011;7852;52.228;5.990;2023-05-10T02:32:52;33.8;;;16;;
15500;SDS011;7852;52.228;5.990;2023-05-10T02:33:52;39.2;;;18.2;;
15500;SDS011;7852;52.228;5.990;2023-05-10T02:35:52;41.7;;;18.4;;
15500;SDS011;7852;52.228;5.990;2023-05-10T02:36:52;32.5;;;14.9;;
15500;SDS011;7852;52.228;5.990;2023-05-10T02:37:52;40.1;;;17.9;;
15500;SDS011;7852;52.228;5.990;2023-05-10T02:38:52;35.3;;;18.2;;
15500;SDS011;7852;52.228;5.990;2023-05-10T02:39:53;35.4;;;16.1;;
15500;SDS011;7852;52.228;5.990;2023-05-10T02:40:52;38.2;;;18.1;;
15500;SDS011;7852;52.228;5.990;2023-05-10T02:41:52;44.5;;;18.8;;
15500;SDS011;7852;52.228;5.990;2023-05-10T02:42:52;39.9;;;18.1;;
15500;SDS011;7852;52.228;5.990;2023-05-10T02:43:52;40.5;;;19.3;;
15500;SDS011;7852;52.228;5.990;2023-05-10T02:44:52;35.5;;;18.2;;
15500;SDS011;7852;52.228;5.990;2023-05-10T02:45:52;37.1;;;17.9;;
15500;SDS011;7852;52.228;5.990;2023-05-10T02:46:52;41.7;;;19;;
15500;SDS011;7852;52.228;5.990;2023-05-10T02:47:52;54.3;;;20;;
15500;SDS011;7852;52.228;5.990;2023-05-10T02:48:52;37.9;;;18;;
15500;SDS011;7852;52.228;5.990;2023-05-10T02:49:52;41.7;;;18.8;;
15500;SDS011;7852;52.228;5.990;2023-05-10T02:51:00;46;;;19.8;;
15500;SDS011;7852;52.228;5.990;2023-05-10T02:52:00;40.2;;;19.9;;
15500;SDS011;7852;52.228;5.990;2023-05-10T02:53:00;39.4;;;18.8;;
15500;SDS011;7852;52.228;5.990;2023-05-10T02:55:00;43.5;;;18.8;;
15500;SDS011;7852;52.228;5.990;2023-05-10T02:55:59;45.7;;;19.7;;
15500;SDS011;7852;52.228;5.990;2023-05-10T02:56:59;43.9;;;20.6;;
15500;SDS011;7852;52.228;5.990;2023-05-10T02:57:59;43.9;;;20.2;;
15500;SDS011;7852;52.228;5.990;2023-05-10T02:58:58;44.3;;;19.2;;
15500;SDS011;7852;52.228;5.990;2023-05-10T02:59:58;45.5;;;20;;
15500;SDS011;7852;52.228;5.990;2023-05-10T03:00:59;46;;;19.4;;
15500;SDS011;7852;52.228;5.990;2023-05-10T03:01:58;45.9;;;20;;
15500;SDS011;7852;52.228;5.990;2023-05-10T03:02:58;40.3;;;18.1;;
15500;SDS011;7852;52.228;5.990;2023-05-10T03:03:58;45.6;;;19.2;;
15500;SDS011;7852;52.228;5.990;2023-05-10T03:04:59;46.1;;;21.2;;
15500;SDS011;7852;52.228;5.990;2023-05-10T03:05:58;47.6;;;19.7;;
15500;SDS011;7852;52.228;5.990;2023-05-10T03:06:58;50.2;;;19.2;;
15500;SDS011;7852;52.228;5.990;2023-05-10T03:07:58;44.6;;;20.5;;
15500;SDS011;7852;52.228;5.990;2023-05-10T03:08:58;47.9;;;19.5;;
15500;SDS011;7852;52.228;5.990;2023-05-10T03:09:58;41.7;;;19.4;;
15500;SDS011;7852;52.228;5.990;2023-05-10T03:11:04;46.4;;;20.1;;
15500;SDS011;7852;52.228;5.990;2023-05-10T03:12:00;44.1;;;19.5;;
15500;SDS011;7852;52.228;5.990;2023-05-10T03:13:05;48.4;;;20.9;;
15500;SDS011;7852;52.228;5.990;2023-05-10T03:14:03;51.1;;;21.3;;
15500;SDS011;7852;52.228;5.990;2023-05-10T03:15:00;49.2;;;22.1;;
15500;SDS011;7852;52.228;5.990;2023-05-10T03:15:59;43.6;;;19.4;;
15500;SDS011;7852;52.228;5.990;2023-05-10T03:17:00;46.8;;;20.3;;
15500;SDS011;7852;52.228;5.990;2023-05-10T03:18:01;49.7;;;22;;
15500;SDS011;7852;52.228;5.990;2023-05-10T03:19:01;50.6;;;20.7;;
15500;SDS011;7852;52.228;5.990;2023-05-10T03:20:03;54.5;;;21.5;;
15500;SDS011;7852;52.228;5.990;2023-05-10T03:20:59;56.3;;;22.8;;
15500;SDS011;7852;52.228;5.990;2023-05-10T03:21:59;48.8;;;21.9;;
15500;SDS011;7852;52.228;5.990;2023-05-10T03:23:00;44;;;20.7;;
15500;SDS011;7852;52.228;5.990;2023-05-10T03:23:59;42.8;;;20.9;;
15500;SDS011;7852;52.228;5.990;2023-05-10T03:24:58;44;;;21.3;;
15500;SDS011;7852;52.228;5.990;2023-05-10T03:25:58;44.6;;;20.8;;
15500;SDS011;7852;52.228;5.990;2023-05-10T03:26:58;49.3;;;22.5;;
15500;SDS011;7852;52.228;5.990;2023-05-10T03:27:59;49.8;;;22.6;;
15500;SDS011;7852;52.228;5.990;2023-05-10T03:28:58;50.5;;;21.2;;
15500;SDS011;7852;52.228;5.990;2023-05-10T03:29:58;50.2;;;21.6;;
15500;SDS011;7852;52.228;5.990;2023-05-10T03:30:58;47.2;;;21.7;;
15500;SDS011;7852;52.228;5.990;2023-05-10T03:31:58;45.3;;;21.9;;
15500;SDS011;7852;52.228;5.990;2023-05-10T03:33:00;48.5;;;21.3;;
15500;SDS011;7852;52.228;5.990;2023-05-10T03:33:58;51.3;;;22;;
15500;SDS011;7852;52.228;5.990;2023-05-10T03:34:58;55.1;;;22.8;;
15500;SDS011;7852;52.228;5.990;2023-05-10T03:35:58;56.3;;;23.2;;
15500;SDS011;7852;52.228;5.990;2023-05-10T03:36:58;54;;;21.7;;
15500;SDS011;7852;52.228;5.990;2023-05-10T03:37:58;57.2;;;23.5;;
15500;SDS011;7852;52.228;5.990;2023-05-10T03:38:58;53.6;;;23.6;;
15500;SDS011;7852;52.228;5.990;2023-05-10T03:39:58;57.5;;;24.1;;
15500;SDS011;7852;52.228;5.990;2023-05-10T03:40:58;53.3;;;22.7;;
15500;SDS011;7852;52.228;5.990;2023-05-10T03:41:58;57;;;23.1;;
15500;SDS011;7852;52.228;5.990;2023-05-10T03:42:59;46.2;;;21;;
15500;SDS011;7852;52.228;5.990;2023-05-10T03:43:58;45.9;;;20.8;;
15500;SDS011;7852;52.228;5.990;2023-05-10T03:44:58;48.2;;;21.9;;
15500;SDS011;7852;52.228;5.990;2023-05-10T03:45:58;51;;;23;;
15500;SDS011;7852;52.228;5.990;2023-05-10T03:46:58;60.5;;;23.7;;
15500;SDS011;7852;52.228;5.990;2023-05-10T03:47:58;52.9;;;21.8;;
15500;SDS011;7852;52.228;5.990;2023-05-10T03:48:58;54.1;;;23.4;;
15500;SDS011;7852;52.228;5.990;2023-05-10T03:49:59;51.7;;;22.7;;
15500;SDS011;7852;52.228;5.990;2023-05-10T03:50:58;60.1;;;24.8;;
15500;SDS011;7852;52.228;5.990;2023-05-10T03:51:58;69.2;;;24.6;;
15500;SDS011;7852;52.228;5.990;2023-05-10T03:52:58;52.2;;;22.9;;
15500;SDS011;7852;52.228;5.990;2023-05-10T03:53:58;60.6;;;22.9;;
15500;SDS011;7852;52.228;5.990;2023-05-10T03:54:58;66.5;;;24.2;;
15500;SDS011;7852;52.228;5.990;2023-05-10T03:55:58;52.7;;;23.2;;
15500;SDS011;7852;52.228;5.990;2023-05-10T03:56:58;63.4;;;22.7;;
15500;SDS011;7852;52.228;5.990;2023-05-10T03:57:58;51.5;;;23.4;;
15500;SDS011;7852;52.228;5.990;2023-05-10T03:58:58;57;;;23.5;;
15500;SDS011;7852;52.228;5.990;2023-05-10T03:59:58;45.8;;;22.3;;
15500;SDS011;7852;52.228;5.990;2023-05-10T04:00:58;57.3;;;24.6;;
15500;SDS011;7852;52.228;5.990;2023-05-10T04:01:58;59.9;;;24.1;;
15500;SDS011;7852;52.228;5.990;2023-05-10T04:02:58;52.6;;;22.8;;
15500;SDS011;7852;52.228;5.990;2023-05-10T04:03:58;62.8;;;24.4;;
15500;SDS011;7852;52.228;5.990;2023-05-10T04:04:58;52;;;21.9;;
15500;SDS011;7852;52.228;5.990;2023-05-10T04:05:59;57.9;;;23;;
15500;SDS011;7852;52.228;5.990;2023-05-10T04:06:58;56.4;;;23.2;;
15500;SDS011;7852;52.228;5.990;2023-05-10T04:07:58;59.6;;;24;;
15500;SDS011;7852;52.228;5.990;2023-05-10T04:08:58;65.1;;;25;;
15500;SDS011;7852;52.228;5.990;2023-05-10T04:09:58;52.6;;;23.5;;
15500;SDS011;7852;52.228;5.990;2023-05-10T04:11:06;48.8;;;22.5;;
15500;SDS011;7852;52.228;5.990;2023-05-10T04:11:59;49.4;;;22.1;;
15500;SDS011;7852;52.228;5.990;2023-05-10T04:12:58;44.9;;;21.3;;
15500;SDS011;7852;52.228;5.990;2023-05-10T04:13:58;50.8;;;21.8;;
15500;SDS011;7852;52.228;5.990;2023-05-10T04:14:58;52.4;;;22.2;;
15500;SDS011;7852;52.228;5.990;2023-05-10T04:15:58;41.4;;;20.1;;
15500;SDS011;7852;52.228;5.990;2023-05-10T04:16:58;47.3;;;21.8;;
15500;SDS011;7852;52.228;5.990;2023-05-10T04:17:58;50.4;;;23.2;;
15500;SDS011;7852;52.228;5.990;2023-05-10T04:18:58;42.2;;;21.6;;
15500;SDS011;7852;52.228;5.990;2023-05-10T04:19:58;53.3;;;23;;
15500;SDS011;7852;52.228;5.990;2023-05-10T04:20:58;51.4;;;22.7;;
15500;SDS011;7852;52.228;5.990;2023-05-10T04:21:58;47.6;;;22.2;;
15500;SDS011;7852;52.228;5.990;2023-05-10T04:22:58;40.7;;;20.1;;
15500;SDS011;7852;52.228;5.990;2023-05-10T04:23:58;53.9;;;22.2;;
15500;SDS011;7852;52.228;5.990;2023-05-10T04:24:58;43.7;;;21.2;;
15500;SDS011;7852;52.228;5.990;2023-05-10T04:25:59;40.5;;;21;;
15500;SDS011;7852;52.228;5.990;2023-05-10T04:26:58;39.7;;;20.3;;
15500;SDS011;7852;52.228;5.990;2023-05-10T04:27:58;41.1;;;21;;
15500;SDS011;7852;52.228;5.990;2023-05-10T04:28:58;44.4;;;21.8;;
15500;SDS011;7852;52.228;5.990;2023-05-10T04:29:58;39.6;;;19.1;;
15500;SDS011;7852;52.228;5.990;2023-05-10T04:31:02;38.7;;;20.1;;
15500;SDS011;7852;52.228;5.990;2023-05-10T04:31:58;46.1;;;21.1;;
15500;SDS011;7852;52.228;5.990;2023-05-10T04:32:58;39;;;19.8;;
15500;SDS011;7852;52.228;5.990;2023-05-10T04:33:58;41.9;;;20.4;;
15500;SDS011;7852;52.228;5.990;2023-05-10T04:34:58;43;;;20.3;;
15500;SDS011;7852;52.228;5.990;2023-05-10T04:35:58;42.9;;;20.7;;
15500;SDS011;7852;52.228;5.990;2023-05-10T04:36:58;39.5;;;20.2;;
15500;SDS011;7852;52.228;5.990;2023-05-10T04:37:58;43.7;;;19.7;;
15500;SDS011;7852;52.228;5.990;2023-05-10T04:38:58;39.8;;;20.9;;
15500;SDS011;7852;52.228;5.990;2023-05-10T04:39:58;42.8;;;20.4;;
15500;SDS011;7852;52.228;5.990;2023-05-10T04:41:04;41.3;;;20.2;;
15500;SDS011;7852;52.228;5.990;2023-05-10T04:42:01;41.8;;;19.8;;
15500;SDS011;7852;52.228;5.990;2023-05-10T04:43:00;44.1;;;20.6;;
15500;SDS011;7852;52.228;5.990;2023-05-10T04:44:00;46.2;;;21.1;;
15500;SDS011;7852;52.228;5.990;2023-05-10T04:45:01;46.6;;;20.1;;
15500;SDS011;7852;52.228;5.990;2023-05-10T04:46:00;42;;;21;;
15500;SDS011;7852;52.228;5.990;2023-05-10T04:47:01;49;;;20.7;;
15500;SDS011;7852;52.228;5.990;2023-05-10T04:48:02;42.4;;;19.7;;
15500;SDS011;7852;52.228;5.990;2023-05-10T04:49:00;47.8;;;21.1;;
15500;SDS011;7852;52.228;5.990;2023-05-10T04:50:01;45.7;;;20.8;;
15500;SDS011;7852;52.228;5.990;2023-05-10T04:51:01;46.2;;;20.4;;
15500;SDS011;7852;52.228;5.990;2023-05-10T04:52:00;51.3;;;21.8;;
15500;SDS011;7852;52.228;5.990;2023-05-10T04:53:00;45.7;;;19.2;;
15500;SDS011;7852;52.228;5.990;2023-05-10T04:54:01;46.3;;;20.5;;
15500;SDS011;7852;52.228;5.990;2023-05-10T04:55:01;49.6;;;21.3;;
15500;SDS011;7852;52.228;5.990;2023-05-10T04:56:00;40.6;;;18.8;;
15500;SDS011;7852;52.228;5.990;2023-05-10T04:57:02;53.4;;;21.4;;
15500;SDS011;7852;52.228;5.990;2023-05-10T04:58:02;39.8;;;19.4;;
15500;SDS011;7852;52.228;5.990;2023-05-10T04:59:04;53.7;;;20.4;;
15500;SDS011;7852;52.228;5.990;2023-05-10T05:00:06;41.8;;;18.6;;
15500;SDS011;7852;52.228;5.990;2023-05-10T05:01:05;43.7;;;19.5;;
15500;SDS011;7852;52.228;5.990;2023-05-10T05:02:01;46.9;;;20.9;;
15500;SDS011;7852;52.228;5.990;2023-05-10T05:03:02;49.6;;;20.8;;
15500;SDS011;7852;52.228;5.990;2023-05-10T05:04:02;40;;;18.1;;
15500;SDS011;7852;52.228;5.990;2023-05-10T05:05:03;38.2;;;17.2;;
15500;SDS011;7852;52.228;5.990;2023-05-10T05:06:07;35.8;;;18.1;;
15500;SDS011;7852;52.228;5.990;2023-05-10T05:07:07;42.5;;;18.8;;
15500;SDS011;7852;52.228;5.990;2023-05-10T05:08:07;55.3;;;20.6;;
15500;SDS011;7852;52.228;5.990;2023-05-10T05:09:15;45.6;;;20.5;;
15500;SDS011;7852;52.228;5.990;2023-05-10T05:10:08;48.4;;;21.1;;
15500;SDS011;7852;52.228;5.990;2023-05-10T05:11:09;47;;;20.6;;
15500;SDS011;7852;52.228;5.990;2023-05-10T05:12:07;48.4;;;20.7;;
15500;SDS011;7852;52.228;5.990;2023-05-10T05:13:09;47;;;20.8;;
15500;SDS011;7852;52.228;5.990;2023-05-10T05:14:07;36.3;;;17.4;;
15500;SDS011;7852;52.228;5.990;2023-05-10T05:15:08;47.2;;;19.9;;
15500;SDS011;7852;52.228;5.990;2023-05-10T05:16:07;44.1;;;19.7;;
15500;SDS011;7852;52.228;5.990;2023-05-10T05:17:09;45.3;;;19.8;;
15500;SDS011;7852;52.228;5.990;2023-05-10T05:18:08;37.5;;;18.2;;
15500;SDS011;7852;52.228;5.990;2023-05-10T05:19:08;42;;;18.9;;
15500;SDS011;7852;52.228;5.990;2023-05-10T05:20:09;46.2;;;19.9;;
15500;SDS011;7852;52.228;5.990;2023-05-10T05:21:13;49.5;;;21.7;;
15500;SDS011;7852;52.228;5.990;2023-05-10T05:22:08;45.7;;;20.3;;
15500;SDS011;7852;52.228;5.990;2023-05-10T05:23:08;42.8;;;20.2;;
15500;SDS011;7852;52.228;5.990;2023-05-10T05:24:08;56;;;22;;
15500;SDS011;7852;52.228;5.990;2023-05-10T05:25:08;53.7;;;21.2;;
15500;SDS011;7852;52.228;5.990;2023-05-10T05:26:08;53.2;;;22.1;;
15500;SDS011;7852;52.228;5.990;2023-05-10T05:27:08;46.2;;;19.3;;
15500;SDS011;7852;52.228;5.990;2023-05-10T05:28:08;51.6;;;21.8;;
15500;SDS011;7852;52.228;5.990;2023-05-10T05:29:08;54.8;;;21.9;;
15500;SDS011;7852;52.228;5.990;2023-05-10T05:30:09;55.7;;;22.3;;
15500;SDS011;7852;52.228;5.990;2023-05-10T05:31:08;56.2;;;21.9;;
15500;SDS011;7852;52.228;5.990;2023-05-10T05:32:08;56.2;;;21.9;;
15500;SDS011;7852;52.228;5.990;2023-05-10T05:33:09;40.7;;;16.8;;
15500;SDS011;7852;52.228;5.990;2023-05-10T05:34:09;46.6;;;19.5;;
15500;SDS011;7852;52.228;5.990;2023-05-10T05:35:09;46.1;;;20.1;;
15500;SDS011;7852;52.228;5.990;2023-05-10T05:36:09;51.4;;;21.3;;
15500;SDS011;7852;52.228;5.990;2023-05-10T05:39:49;62;;;27.3;;
15500;SDS011;7852;52.228;5.990;2023-05-10T05:39:51;59.5;;;28.2;;
15500;SDS011;7852;52.228;5.990;2023-05-10T05:40:12;54.9;;;22.4;;
15500;SDS011;7852;52.228;5.990;2023-05-10T05:41:12;52.5;;;20.2;;
15500;SDS011;7852;52.228;5.990;2023-05-10T05:42:12;44.7;;;19.8;;
15500;SDS011;7852;52.228;5.990;2023-05-10T05:43:12;44.9;;;21;;
15500;SDS011;7852;52.228;5.990;2023-05-10T05:44:12;51.3;;;21.4;;
15500;SDS011;7852;52.228;5.990;2023-05-10T05:45:12;51.3;;;20.3;;
15500;SDS011;7852;52.228;5.990;2023-05-10T05:46:17;52.2;;;21.5;;
15500;SDS011;7852;52.228;5.990;2023-05-10T05:47:14;47.2;;;20;;
15500;SDS011;7852;52.228;5.990;2023-05-10T05:48:21;49.3;;;20.8;;
15500;SDS011;7852;52.228;5.990;2023-05-10T05:49:20;44.9;;;20.2;;
15500;SDS011;7852;52.228;5.990;2023-05-10T05:50:23;48.7;;;20.4;;
15500;SDS011;7852;52.228;5.990;2023-05-10T05:51:30;40.1;;;19.1;;
15500;SDS011;7852;52.228;5.990;2023-05-10T05:52:30;35.7;;;18;;
15500;SDS011;7852;52.228;5.990;2023-05-10T05:53:29;46.1;;;20.6;;
15500;SDS011;7852;52.228;5.990;2023-05-10T05:54:31;48.6;;;20.2;;
15500;SDS011;7852;52.228;5.990;2023-05-10T05:55:30;51;;;20.4;;
15500;SDS011;7852;52.228;5.990;2023-05-10T05:56:30;45.6;;;20.5;;
15500;SDS011;7852;52.228;5.990;2023-05-10T05:57:30;49;;;20.6;;
15500;SDS011;7852;52.228;5.990;2023-05-10T05:58:30;42.6;;;18.3;;
15500;SDS011;7852;52.228;5.990;2023-05-10T05:59:30;49.8;;;20;;
15500;SDS011;7852;52.228;5.990;2023-05-10T06:00:30;43.9;;;19.3;;
15500;SDS011;7852;52.228;5.990;2023-05-10T06:01:30;51.8;;;21.1;;
15500;SDS011;7852;52.228;5.990;2023-05-10T06:02:30;60.8;;;23.5;;
15500;SDS011;7852;52.228;5.990;2023-05-10T06:03:30;50.6;;;18.6;;
15500;SDS011;7852;52.228;5.990;2023-05-10T06:04:30;55.4;;;21.7;;
15500;SDS011;7852;52.228;5.990;2023-05-10T06:05:30;54.3;;;21.2;;
15500;SDS011;7852;52.228;5.990;2023-05-10T06:06:30;65.4;;;22.9;;
15500;SDS011;7852;52.228;5.990;2023-05-10T06:07:30;59.3;;;21.7;;
15500;SDS011;7852;52.228;5.990;2023-05-10T06:08:30;59;;;21.5;;
15500;SDS011;7852;52.228;5.990;2023-05-10T06:09:30;52.6;;;21.3;;
15500;SDS011;7852;52.228;5.990;2023-05-10T06:10:30;57.5;;;21.4;;
15500;SDS011;7852;52.228;5.990;2023-05-10T06:11:30;60.6;;;22.8;;
15500;SDS011;7852;52.228;5.990;2023-05-10T06:12:30;64.3;;;23.4;;
15500;SDS011;7852;52.228;5.990;2023-05-10T06:13:30;64.9;;;23.4;;
15500;SDS011;7852;52.228;5.990;2023-05-10T06:14:30;61.1;;;22.3;;
15500;SDS011;7852;52.228;5.990;2023-05-10T06:15:30;63;;;22.4;;